createdAt,value
2023-03-24T00:01:19.017Z,8.32
2023-03-24T00:03:49.182Z,9.07
2023-03-24T00:06:18.911Z,7.75
2023-03-24T00:08:48.160Z,8.50
2023-03-24T00:11:19.060Z,5.53
2023-03-24T00:13:50.563Z,8.88
2023-03-24T00:16:21.780Z,4.60
2023-03-24T00:18:54.183Z,8.57
2023-03-24T00:21:24.632Z,7.03
2023-03-24T00:23:54.746Z,6.65
2023-03-24T00:26:25.213Z,10.88
2023-03-24T00:28:53.778Z,5.95
2023-03-24T00:31:22.405Z,7.07
2023-03-24T00:33:51.663Z,8.23
2023-03-24T00:36:20.975Z,6.68
2023-03-24T00:38:50.283Z,7.07
2023-03-24T00:41:20.081Z,5.93
2023-03-24T00:43:48.934Z,4.97
2023-03-24T00:46:27.685Z,8.40
2023-03-24T00:49:02.637Z,6.38
2023-03-24T00:51:32.860Z,6.32
2023-03-24T00:54:02.063Z,8.75
2023-03-24T00:56:33.298Z,6.15
2023-03-24T00:59:02.623Z,5.18
2023-03-24T01:01:33.166Z,5.88
2023-03-24T01:04:02.494Z,8.23
2023-03-24T01:06:30.224Z,7.93
2023-03-24T01:08:58.143Z,5.82
2023-03-24T01:11:27.355Z,6.38
2023-03-24T01:13:55.446Z,7.85
2023-03-24T01:16:25.879Z,7.90
2023-03-24T01:18:54.123Z,9.20
2023-03-24T01:21:25.427Z,7.00
2023-03-24T01:23:53.859Z,8.52
2023-03-24T01:26:21.897Z,4.57
2023-03-24T01:28:50.021Z,11.98
2023-03-24T01:31:18.115Z,12.07
2023-03-24T01:33:46.062Z,5.32
2023-03-24T01:36:13.972Z,6.55
2023-03-24T01:38:43.588Z,5.88
2023-03-24T01:41:11.632Z,4.82
2023-03-24T01:43:39.702Z,7.32
2023-03-24T01:46:19.244Z,5.22
2023-03-24T01:48:51.437Z,8.88
2023-03-24T01:51:22.538Z,5.13
2023-03-24T01:53:55.327Z,7.82
2023-03-24T01:56:23.752Z,6.78
2023-03-24T01:58:54.216Z,5.00
2023-03-24T02:01:29.939Z,5.55
2023-03-24T02:04:27.919Z,4.85
2023-03-24T02:07:09.132Z,7.05
2023-03-24T02:09:38.641Z,5.40
2023-03-24T02:12:06.824Z,7.40
2023-03-24T02:14:35.505Z,5.75
2023-03-24T02:17:19.967Z,5.10
2023-03-24T02:20:11.533Z,6.07
2023-03-24T02:23:05.176Z,4.22
2023-03-24T02:25:57.656Z,5.82
2023-03-24T02:28:33.145Z,6.43
2023-03-24T02:31:18.282Z,6.90
2023-03-24T02:34:21.963Z,5.38
2023-03-24T02:40:07.347Z,5.57
2023-03-24T02:45:14.027Z,4.97
2023-03-24T02:47:46.288Z,4.45
2023-03-24T02:50:20.524Z,4.70
2023-03-24T02:55:22.279Z,3.75
2023-03-24T02:57:53.671Z,7.45
2023-03-24T03:00:40.042Z,3.38
2023-03-24T03:03:10.986Z,3.17
2023-03-24T03:05:43.547Z,4.15
2023-03-24T03:08:13.948Z,5.10
2023-03-24T03:10:45.075Z,3.28
2023-03-24T03:13:17.647Z,2.28
2023-03-24T03:15:49.204Z,2.13
2023-03-24T03:18:19.710Z,4.07
2023-03-24T03:20:53.238Z,6.13
2023-03-24T03:23:25.652Z,4.85
2023-03-24T03:25:58.414Z,2.80
2023-03-24T03:28:30.047Z,6.15
2023-03-24T03:30:59.133Z,3.30
2023-03-24T03:33:32.564Z,4.18
2023-03-24T03:36:05.160Z,6.65
2023-03-24T03:38:38.356Z,4.82
2023-03-24T03:41:07.872Z,8.73
2023-03-24T03:43:38.101Z,4.25
2023-03-24T03:46:08.236Z,9.90
2023-03-24T03:48:39.155Z,8.30
2023-03-24T03:51:14.006Z,10.95
2023-03-24T03:53:51.802Z,7.80
2023-03-24T03:56:27.011Z,8.20
2023-03-24T03:59:33.966Z,5.70
2023-03-24T04:02:13.730Z,8.80
2023-03-24T04:05:06.571Z,7.93
2023-03-24T04:08:13.975Z,8.45
2023-03-24T04:11:38.425Z,12.25
2023-03-24T04:14:20.883Z,5.28
2023-03-24T04:19:47.871Z,9.32
2023-03-24T04:22:25.756Z,8.73
2023-03-24T04:25:12.901Z,12.70
2023-03-24T04:27:46.417Z,8.07
2023-03-24T04:30:18.964Z,13.50
2023-03-24T04:32:48.754Z,12.95
2023-03-24T04:35:32.141Z,14.10
2023-03-24T04:38:17.270Z,12.57
2023-03-24T04:40:50.807Z,14.63
2023-03-24T04:43:21.328Z,15.95
2023-03-24T04:45:50.862Z,13.63
2023-03-24T04:48:27.501Z,15.82
2023-03-24T04:51:14.055Z,14.82
2023-03-24T04:54:01.177Z,14.38
2023-03-24T04:56:41.483Z,17.80
2023-03-24T04:59:24.548Z,19.73
2023-03-24T05:01:53.750Z,16.67
2023-03-24T05:04:31.053Z,18.25
2023-03-24T05:07:09.581Z,20.55
2023-03-24T05:09:37.456Z,17.05
2023-03-24T05:12:05.391Z,23.88
2023-03-24T05:14:45.443Z,17.85
2023-03-24T05:17:14.674Z,24.42
2023-03-24T05:19:42.785Z,19.95
2023-03-24T05:22:10.941Z,24.10
2023-03-24T05:24:40.299Z,16.83
2023-03-24T05:27:08.439Z,31.60
2023-03-24T05:29:36.561Z,26.02
2023-03-24T05:32:04.639Z,17.95
2023-03-24T05:34:33.945Z,25.13
2023-03-24T05:37:12.170Z,20.92
2023-03-24T05:39:40.474Z,28.38
2023-03-24T05:42:14.250Z,22.80
2023-03-24T05:44:42.204Z,29.83
2023-03-24T05:47:20.383Z,22.65
2023-03-24T05:49:50.496Z,28.25
2023-03-24T05:52:20.578Z,25.25
2023-03-24T05:54:52.268Z,21.50
2023-03-24T05:57:23.937Z,19.20
2023-03-24T06:00:16.330Z,20.42
2023-03-24T06:03:05.955Z,20.25
2023-03-24T06:05:42.577Z,28.05
2023-03-24T06:08:11.095Z,19.85
2023-03-24T06:10:39.092Z,22.05
2023-03-24T06:13:09.278Z,20.20
2023-03-24T06:15:42.872Z,16.98
2023-03-24T06:18:32.218Z,22.80
2023-03-24T06:21:07.003Z,20.88
2023-03-24T06:23:35.777Z,19.77
2023-03-24T06:26:16.752Z,23.75
2023-03-24T06:28:53.000Z,20.83
2023-03-24T06:31:24.015Z,28.52
2023-03-24T06:33:53.667Z,19.52
2023-03-24T06:36:25.860Z,28.27
2023-03-24T06:38:54.617Z,18.70
2023-03-24T06:41:22.979Z,25.50
2023-03-24T06:43:55.689Z,25.05
2023-03-24T06:46:23.798Z,28.73
2023-03-24T06:48:52.614Z,21.30
2023-03-24T06:51:22.139Z,19.40
2023-03-24T06:53:51.577Z,12.55
2023-03-24T06:56:21.160Z,25.20
2023-03-24T06:58:54.604Z,22.48
2023-03-24T07:01:36.234Z,16.92
2023-03-24T07:04:26.163Z,25.58
2023-03-24T07:07:05.597Z,19.13
2023-03-24T07:09:45.851Z,13.27
2023-03-24T07:12:14.936Z,25.80
2023-03-24T07:14:43.968Z,18.40
2023-03-24T07:17:13.885Z,16.40
2023-03-24T07:20:09.648Z,10.70
2023-03-24T07:22:43.892Z,20.90
2023-03-24T07:25:28.596Z,16.50
2023-03-24T07:28:09.314Z,14.57
2023-03-24T07:30:40.881Z,20.52
2023-03-24T07:33:12.138Z,17.98
2023-03-24T07:35:42.095Z,16.63
2023-03-24T07:38:11.080Z,19.20
2023-03-24T07:40:40.758Z,20.40
2023-03-24T07:43:08.948Z,16.73
2023-03-24T07:45:57.003Z,16.40
2023-03-24T07:48:29.341Z,24.10
2023-03-24T07:50:57.262Z,18.30
2023-03-24T07:53:47.830Z,19.63
2023-03-24T07:56:28.582Z,16.63
2023-03-24T07:58:59.065Z,16.30
2023-03-24T08:01:32.066Z,20.30
2023-03-24T08:04:03.322Z,17.67
2023-03-24T08:06:50.398Z,17.23
2023-03-24T08:09:18.347Z,22.85
2023-03-24T08:11:47.998Z,19.27
2023-03-24T08:14:15.941Z,21.33
2023-03-24T08:16:46.650Z,13.75
2023-03-24T08:19:14.691Z,19.55
2023-03-24T08:21:42.493Z,16.75
2023-03-24T08:24:10.435Z,15.25
2023-03-24T08:26:38.524Z,17.17
2023-03-24T08:29:07.822Z,24.38
2023-03-24T08:31:38.090Z,16.65
2023-03-24T08:34:06.905Z,15.90
2023-03-24T08:36:34.981Z,23.08
2023-03-24T08:39:02.861Z,13.65
2023-03-24T08:41:35.022Z,17.30
2023-03-24T08:44:06.802Z,19.52
2023-03-24T08:46:36.547Z,17.88
2023-03-24T08:49:05.045Z,15.55
2023-03-24T08:51:33.389Z,19.13
2023-03-24T08:54:01.580Z,17.83
2023-03-24T08:56:29.677Z,18.15
2023-03-24T08:58:58.050Z,19.02
2023-03-24T09:01:26.165Z,20.98
2023-03-24T09:03:55.753Z,21.58
2023-03-24T09:06:23.692Z,20.20
2023-03-24T09:08:52.137Z,20.60
2023-03-24T09:11:21.452Z,19.13
2023-03-24T09:13:49.962Z,19.48
2023-03-24T09:16:18.272Z,19.92
2023-03-24T09:18:47.560Z,16.33
2023-03-24T09:21:17.502Z,18.48
2023-03-24T09:23:45.345Z,14.77
2023-03-24T09:26:13.109Z,17.27
2023-03-24T09:28:41.140Z,16.80
2023-03-24T09:31:08.963Z,20.95
2023-03-24T09:33:36.971Z,15.02
2023-03-24T09:36:05.635Z,15.85
2023-03-24T09:38:35.109Z,14.13
2023-03-24T09:41:04.865Z,13.82
2023-03-24T09:43:38.666Z,15.85
2023-03-24T09:48:39.567Z,15.57
2023-03-24T09:51:08.824Z,17.33
2023-03-24T09:53:41.851Z,15.50
2023-03-24T09:56:14.014Z,17.55
2023-03-24T09:58:42.394Z,14.02
2023-03-24T10:01:15.150Z,14.60
2023-03-24T10:03:43.929Z,15.98
2023-03-24T10:06:18.133Z,15.60
2023-03-24T10:08:52.310Z,15.23
2023-03-24T10:11:26.701Z,16.77
2023-03-24T10:14:04.371Z,14.73
2023-03-24T10:16:37.800Z,13.25
2023-03-24T10:19:15.174Z,10.10
2023-03-24T10:21:49.657Z,17.02
2023-03-24T10:24:23.772Z,14.10
2023-03-24T10:26:56.146Z,9.55
2023-03-24T10:29:27.401Z,10.23
2023-03-24T10:31:59.531Z,12.93
2023-03-24T10:34:29.654Z,10.73
2023-03-24T10:36:59.333Z,12.32
2023-03-24T10:39:42.090Z,13.02
2023-03-24T10:42:17.237Z,15.07
2023-03-24T10:44:45.853Z,16.30
2023-03-24T10:47:15.440Z,13.32
2023-03-24T10:49:54.810Z,14.48
2023-03-24T10:52:24.581Z,11.95
2023-03-24T10:54:58.824Z,16.77
2023-03-24T10:57:27.624Z,19.80
2023-03-24T10:59:57.541Z,12.95
2023-03-24T11:02:27.041Z,15.90
2023-03-24T11:04:57.956Z,13.05
2023-03-24T11:07:31.234Z,18.48
2023-03-24T11:10:02.998Z,8.95
2023-03-24T11:12:32.297Z,12.32
2023-03-24T11:15:21.109Z,10.60
2023-03-24T11:17:56.154Z,12.65
2023-03-24T11:20:28.501Z,16.50
2023-03-24T11:23:01.605Z,13.40
2023-03-24T11:25:34.384Z,9.82
2023-03-24T11:28:03.741Z,8.25
2023-03-24T11:30:35.549Z,7.28
2023-03-24T11:33:04.853Z,6.97
2023-03-24T11:35:41.714Z,9.10
2023-03-24T11:38:10.219Z,10.65
2023-03-24T11:40:39.458Z,6.32
2023-03-24T11:43:08.228Z,9.38
2023-03-24T11:45:39.328Z,7.60
2023-03-24T11:48:15.454Z,7.18
2023-03-24T11:50:43.722Z,6.68
2023-03-24T11:53:14.618Z,9.10
2023-03-24T11:55:48.419Z,6.10
2023-03-24T11:58:27.807Z,4.90
2023-03-24T12:00:58.805Z,14.40
2023-03-24T12:03:50.046Z,10.98
2023-03-24T12:06:30.883Z,9.70
2023-03-24T12:09:07.459Z,6.32
2023-03-24T12:11:46.419Z,16.60
2023-03-24T12:14:20.927Z,10.82
2023-03-24T12:16:54.033Z,8.38
2023-03-24T12:19:30.284Z,12.23
2023-03-24T12:22:03.968Z,6.43
2023-03-24T12:24:44.841Z,8.18
2023-03-24T12:27:20.966Z,10.25
2023-03-24T12:29:57.466Z,9.77
2023-03-24T12:32:35.308Z,8.95
2023-03-24T12:35:22.671Z,6.40
2023-03-24T12:37:53.934Z,9.18
2023-03-24T12:40:52.994Z,10.10
2023-03-24T12:43:30.767Z,10.32
2023-03-24T12:46:00.017Z,9.05
2023-03-24T12:48:43.675Z,8.77
2023-03-24T12:51:20.885Z,11.20
2023-03-24T12:53:57.245Z,13.35
2023-03-24T12:56:28.427Z,9.43
2023-03-24T12:59:00.177Z,6.20
2023-03-24T13:01:32.213Z,9.20
2023-03-24T13:04:05.671Z,9.30
2023-03-24T13:06:37.387Z,10.45
2023-03-24T13:09:15.481Z,7.97
2023-03-24T13:11:49.954Z,10.52
2023-03-24T13:14:24.230Z,8.48
2023-03-24T13:16:52.978Z,10.00
2023-03-24T13:19:22.707Z,12.35
2023-03-24T13:21:52.682Z,12.73
2023-03-24T13:24:21.019Z,14.70
2023-03-24T13:26:56.226Z,12.90
2023-03-24T13:29:49.428Z,14.80
2023-03-24T13:32:29.735Z,11.90
2023-03-24T13:35:01.860Z,6.30
2023-03-24T13:37:34.831Z,13.35
2023-03-24T13:40:07.865Z,11.90
2023-03-24T13:42:37.781Z,8.70
2023-03-24T13:45:09.361Z,11.15
2023-03-24T13:47:50.898Z,11.48
2023-03-24T13:50:19.085Z,12.07
2023-03-24T13:52:49.074Z,12.70
2023-03-24T13:55:22.012Z,14.98
2023-03-24T13:57:55.828Z,11.57
2023-03-24T14:00:26.415Z,14.27
2023-03-24T14:02:56.222Z,17.50
2023-03-24T14:05:42.875Z,8.05
2023-03-24T14:08:13.914Z,9.57
2023-03-24T14:10:44.037Z,11.52
2023-03-24T14:13:35.145Z,6.57
2023-03-24T14:16:44.199Z,6.97
2023-03-24T14:19:26.663Z,7.63
2023-03-24T14:22:14.349Z,8.30
2023-03-24T14:24:44.921Z,8.18
2023-03-24T14:27:32.273Z,10.50
2023-03-24T14:30:02.331Z,10.57
2023-03-24T14:32:31.624Z,10.55
2023-03-24T14:35:00.691Z,5.13
2023-03-24T14:37:29.893Z,7.45
2023-03-24T14:39:58.912Z,8.95
2023-03-24T14:42:55.444Z,10.68
2023-03-24T14:45:55.191Z,5.88
2023-03-24T14:48:33.046Z,3.47
2023-03-24T14:51:05.364Z,4.53
2023-03-24T14:53:37.166Z,4.38
2023-03-24T14:56:06.238Z,3.15
2023-03-24T14:58:38.951Z,5.65
2023-03-24T15:01:08.296Z,2.60
2023-03-24T15:03:42.858Z,5.07
2023-03-24T15:06:14.937Z,2.53
2023-03-24T15:08:47.092Z,6.55
2023-03-24T15:11:17.108Z,5.80
2023-03-24T15:13:46.108Z,3.60
2023-03-24T15:16:22.599Z,8.35
2023-03-24T15:21:27.980Z,8.02
2023-03-24T15:23:57.059Z,6.13
2023-03-24T15:26:26.656Z,8.02
2023-03-24T15:28:59.963Z,5.82
2023-03-24T15:31:30.385Z,20.67
2023-03-24T15:34:27.371Z,18.65
2023-03-24T15:36:56.518Z,10.55
2023-03-24T15:39:27.353Z,26.35
2023-03-24T15:41:55.347Z,6.35
2023-03-24T15:44:27.009Z,16.05
2023-03-24T15:46:56.707Z,10.30
2023-03-24T15:49:28.246Z,10.88
2023-03-24T15:51:59.504Z,12.43
2023-03-24T15:54:29.936Z,6.50
2023-03-24T15:57:03.084Z,9.18
2023-03-24T15:59:36.727Z,10.10
2023-03-24T16:02:06.672Z,12.48
2023-03-24T16:04:38.099Z,6.40
2023-03-24T16:07:05.967Z,11.30
2023-03-24T16:09:40.941Z,8.43
2023-03-24T16:12:11.736Z,14.18
2023-03-24T16:14:39.868Z,7.05
2023-03-24T16:17:08.080Z,10.15
2023-03-24T16:19:37.825Z,11.73
2023-03-24T16:22:10.514Z,9.43
2023-03-24T16:24:38.401Z,9.93
2023-03-24T16:27:06.392Z,9.13
2023-03-24T16:29:34.310Z,7.25
2023-03-24T16:32:02.162Z,9.45
2023-03-24T16:34:30.030Z,10.05
2023-03-24T16:36:59.316Z,10.32
2023-03-24T16:39:28.352Z,9.40
2023-03-24T16:41:56.699Z,8.15
2023-03-24T16:44:25.422Z,12.68
2023-03-24T16:46:54.904Z,8.93
2023-03-24T16:49:23.946Z,11.88
2023-03-24T16:51:52.773Z,19.30
2023-03-24T16:54:22.093Z,18.27
2023-03-24T16:56:49.970Z,15.32
2023-03-24T16:59:17.851Z,13.05
2023-03-24T17:01:47.458Z,12.65
2023-03-24T17:04:17.682Z,12.10
2023-03-24T17:06:49.065Z,11.88
2023-03-24T17:09:17.065Z,9.80
2023-03-24T17:11:50.068Z,10.27
2023-03-24T17:14:18.034Z,13.57
2023-03-24T17:16:49.225Z,10.35
2023-03-24T17:19:18.959Z,14.68
2023-03-24T17:21:50.249Z,15.38
2023-03-24T17:24:18.348Z,12.38
2023-03-24T17:26:48.853Z,13.82
2023-03-24T17:29:16.591Z,8.52
2023-03-24T17:31:44.642Z,11.25
2023-03-24T17:34:21.635Z,11.45
2023-03-24T17:36:51.252Z,9.27
2023-03-24T17:39:20.080Z,11.80
2023-03-24T17:41:49.849Z,9.65
2023-03-24T17:44:17.718Z,9.38
2023-03-24T17:46:45.984Z,6.85
2023-03-24T17:49:13.733Z,6.45
2023-03-24T17:51:41.500Z,12.93
2023-03-24T17:54:10.554Z,11.15
2023-03-24T17:56:38.601Z,24.52
2023-03-24T17:59:08.177Z,31.33
2023-03-24T18:01:39.530Z,29.13
2023-03-24T18:04:08.148Z,16.35
2023-03-24T18:06:38.528Z,12.60
2023-03-24T18:09:07.534Z,19.20
2023-03-24T18:11:35.928Z,24.80
2023-03-24T18:14:04.036Z,17.05
2023-03-24T18:16:35.505Z,27.30
2023-03-24T18:19:03.853Z,15.82
2023-03-24T18:21:34.756Z,10.45
2023-03-24T18:24:02.655Z,12.15
2023-03-24T18:26:30.782Z,10.95
2023-03-24T18:28:58.789Z,11.55
2023-03-24T18:31:27.302Z,10.05
2023-03-24T18:33:57.041Z,13.02
2023-03-24T18:36:27.212Z,11.95
2023-03-24T18:38:59.014Z,7.82
2023-03-24T18:41:28.452Z,9.85
2023-03-24T18:43:58.041Z,12.13
2023-03-24T18:46:27.319Z,12.20
2023-03-24T18:48:58.567Z,12.15
2023-03-24T18:51:27.277Z,10.57
2023-03-24T18:53:58.011Z,9.73
2023-03-24T18:56:26.427Z,7.10
2023-03-24T18:58:54.313Z,8.45
2023-03-24T19:01:25.362Z,7.22
2023-03-24T19:03:53.834Z,14.52
2023-03-24T19:06:26.220Z,4.97
2023-03-24T19:08:54.275Z,9.70
2023-03-24T19:11:22.069Z,13.05
2023-03-24T19:13:51.847Z,7.53
2023-03-24T19:16:21.259Z,8.73
2023-03-24T19:18:50.650Z,15.55
2023-03-24T19:21:18.948Z,12.50
2023-03-24T19:23:49.941Z,10.43
2023-03-24T19:26:20.779Z,13.02
2023-03-24T19:28:50.225Z,9.80
2023-03-24T19:31:19.583Z,5.63
2023-03-24T19:33:47.907Z,9.10
2023-03-24T19:36:16.425Z,11.30
2023-03-24T19:38:44.369Z,10.98
2023-03-24T19:41:15.526Z,5.10
2023-03-24T19:43:43.799Z,12.10
2023-03-24T19:46:11.685Z,10.40
2023-03-24T19:48:39.650Z,8.00
2023-03-24T19:51:11.403Z,9.65
2023-03-24T19:53:41.625Z,5.90
2023-03-24T19:56:13.746Z,6.88
2023-03-24T19:58:46.087Z,8.80
2023-03-24T20:01:14.150Z,8.98
2023-03-24T20:03:42.128Z,12.32
2023-03-24T20:06:10.819Z,8.98
2023-03-24T20:08:39.653Z,7.35
2023-03-24T20:11:08.705Z,7.15
2023-03-24T20:13:36.694Z,6.95
2023-03-24T20:16:06.699Z,7.07
2023-03-24T20:18:35.826Z,7.70
2023-03-24T20:21:06.269Z,9.43
2023-03-24T20:23:34.211Z,8.82
2023-03-24T20:26:02.505Z,8.35
2023-03-24T20:28:30.582Z,10.02
2023-03-24T20:31:02.076Z,10.05
2023-03-24T20:33:31.699Z,7.78
2023-03-24T20:36:00.134Z,8.02
2023-03-24T20:38:28.133Z,5.88
2023-03-24T20:41:00.126Z,8.00
2023-03-24T20:43:28.704Z,8.75
2023-03-24T20:45:57.005Z,5.75
2023-03-24T20:48:25.062Z,6.05
2023-03-24T20:50:54.752Z,8.48
2023-03-24T20:53:22.568Z,6.40
2023-03-24T20:55:57.837Z,8.65
2023-03-24T20:58:27.494Z,8.50
2023-03-24T21:00:56.044Z,9.38
2023-03-24T21:03:24.253Z,6.55
2023-03-24T21:05:52.622Z,6.50
2023-03-24T21:08:21.917Z,7.97
2023-03-24T21:10:49.922Z,9.13
2023-03-24T21:13:17.753Z,7.50
2023-03-24T21:15:46.263Z,10.13
2023-03-24T21:18:14.374Z,6.22
2023-03-24T21:20:47.336Z,6.50
2023-03-24T21:23:18.556Z,8.63
2023-03-24T21:25:48.386Z,8.10
2023-03-24T21:28:17.896Z,7.53
2023-03-24T21:30:46.271Z,7.35
2023-03-24T21:33:15.750Z,9.27
2023-03-24T21:35:43.694Z,10.68
2023-03-24T21:38:11.878Z,11.48
2023-03-24T21:40:39.842Z,7.82
2023-03-24T21:43:09.411Z,10.50
2023-03-24T21:45:37.920Z,7.65
2023-03-24T21:48:07.217Z,9.38
2023-03-24T21:50:38.860Z,6.65
2023-03-24T21:53:14.782Z,11.07
2023-03-24T21:55:43.408Z,7.18
2023-03-24T21:58:12.728Z,5.18
2023-03-24T22:00:41.210Z,6.93
2023-03-24T22:03:09.506Z,8.13
2023-03-24T22:05:39.364Z,6.30
2023-03-24T22:08:07.532Z,7.63
2023-03-24T22:10:37.041Z,7.97
2023-03-24T22:13:05.367Z,6.88
2023-03-24T22:15:35.602Z,7.80
2023-03-24T22:18:05.215Z,6.72
2023-03-24T22:20:33.567Z,7.55
2023-03-24T22:23:03.502Z,7.95
2023-03-24T22:25:32.157Z,4.95
2023-03-24T22:28:00.640Z,9.98
2023-03-24T22:30:28.435Z,4.47
2023-03-24T22:32:57.627Z,5.43
2023-03-24T22:35:25.568Z,6.85
2023-03-24T22:37:53.856Z,6.20
2023-03-24T22:40:21.797Z,5.95
2023-03-24T22:42:49.767Z,7.75
2023-03-24T22:45:17.646Z,7.90
2023-03-24T22:47:45.583Z,6.20
2023-03-24T22:50:14.875Z,7.25
2023-03-24T22:52:42.743Z,7.35
2023-03-24T22:55:11.094Z,7.10
2023-03-24T22:57:38.965Z,6.50
2023-03-24T23:00:08.282Z,8.13
2023-03-24T23:02:36.255Z,7.65
2023-03-24T23:05:04.386Z,7.40
2023-03-24T23:07:34.885Z,6.25
2023-03-24T23:10:06.533Z,10.55
2023-03-24T23:12:34.594Z,10.75
2023-03-24T23:15:02.354Z,8.13
2023-03-24T23:17:30.576Z,8.80
2023-03-24T23:19:58.635Z,8.32
2023-03-24T23:22:26.493Z,8.95
2023-03-24T23:25:01.885Z,10.15
2023-03-24T23:27:34.784Z,10.30
2023-03-24T23:30:02.795Z,9.23
2023-03-24T23:32:33.412Z,9.60
2023-03-24T23:35:02.939Z,10.50
2023-03-24T23:37:32.155Z,6.97
2023-03-24T23:40:06.693Z,7.90
2023-03-24T23:42:34.936Z,10.82
2023-03-24T23:45:02.951Z,10.80
2023-03-24T23:47:32.663Z,14.63
2023-03-24T23:50:00.935Z,11.73
2023-03-24T23:52:29.664Z,9.45
2023-03-24T23:54:58.523Z,12.60
2023-03-24T23:57:27.916Z,17.80
2023-03-24T23:59:55.719Z,15.88
